createdAt,value
2018-01-10T00:01:01.666Z,18.90
2018-01-10T00:05:45.003Z,19.97
2018-01-10T00:10:28.373Z,20.50
2018-01-10T00:15:11.689Z,23.47
2018-01-10T00:19:54.993Z,21.60
2018-01-10T00:24:39.117Z,24.03
2018-01-10T00:29:22.481Z,21.73
2018-01-10T00:34:06.664Z,20.73
2018-01-10T00:38:50.005Z,19.37
2018-01-10T00:43:33.310Z,22.37
2018-01-10T00:48:16.622Z,20.40
2018-01-10T00:52:59.948Z,23.20
2018-01-10T00:57:43.270Z,24.27
2018-01-10T01:02:26.610Z,24.23
2018-01-10T01:07:09.918Z,23.40
2018-01-10T01:11:53.998Z,25.07
2018-01-10T01:16:37.385Z,24.00
2018-01-10T01:21:20.708Z,25.23
2018-01-10T01:26:04.023Z,26.07
2018-01-10T01:30:47.409Z,27.73
2018-01-10T01:35:31.023Z,22.60
2018-01-10T01:40:14.317Z,25.70
2018-01-10T01:44:58.404Z,24.87
2018-01-10T01:49:41.724Z,26.10
2018-01-10T01:54:25.837Z,23.70
2018-01-10T01:59:09.120Z,24.90
2018-01-10T02:03:53.281Z,25.37
2018-01-10T02:08:36.633Z,26.77
2018-01-10T02:13:19.975Z,27.10
2018-01-10T02:18:03.287Z,25.07
2018-01-10T02:22:46.794Z,25.27
2018-01-10T02:27:30.167Z,23.90
2018-01-10T02:32:13.521Z,23.43
2018-01-10T02:36:57.633Z,26.43
2018-01-10T02:41:40.948Z,22.73
2018-01-10T02:46:24.316Z,22.10
2018-01-10T02:51:07.697Z,22.17
2018-01-10T02:55:51.030Z,22.03
2018-01-10T03:00:35.377Z,22.50
2018-01-10T03:05:18.693Z,21.07
2018-01-10T03:10:02.019Z,22.10
2018-01-10T03:14:45.352Z,21.13
2018-01-10T03:19:28.738Z,21.70
2018-01-10T03:24:12.048Z,21.57
2018-01-10T03:28:55.366Z,20.83
2018-01-10T03:33:39.454Z,17.93
2018-01-10T03:38:22.762Z,18.90
2018-01-10T03:43:06.230Z,21.83
2018-01-10T03:47:49.696Z,23.17
2018-01-10T03:52:33.026Z,22.40
2018-01-10T03:57:16.360Z,24.10
2018-01-10T04:01:59.675Z,23.77
2018-01-10T04:06:43.009Z,24.50
2018-01-10T04:11:27.099Z,23.70
2018-01-10T04:16:10.468Z,24.67
2018-01-10T04:20:54.119Z,23.83
2018-01-10T04:25:37.421Z,27.57
2018-01-10T04:30:20.772Z,26.90
2018-01-10T04:35:04.239Z,25.37
2018-01-10T04:39:47.563Z,24.53
2018-01-10T04:44:30.877Z,27.87
2018-01-10T04:49:14.187Z,25.60
2018-01-10T04:53:58.358Z,24.40
2018-01-10T04:58:41.654Z,26.77
2018-01-10T05:03:24.976Z,27.20
2018-01-10T05:08:08.363Z,28.50
2018-01-10T05:12:51.755Z,25.40
2018-01-10T05:17:35.188Z,25.93
2018-01-10T05:22:18.491Z,24.87
2018-01-10T05:27:02.566Z,27.17
2018-01-10T05:31:45.923Z,24.83
2018-01-10T05:36:29.291Z,22.97
2018-01-10T05:41:12.598Z,24.60
2018-01-10T05:45:55.930Z,25.67
2018-01-10T05:50:39.514Z,26.53
2018-01-10T05:55:22.798Z,28.40
2018-01-10T06:00:06.174Z,29.40
2018-01-10T06:04:49.497Z,26.90
2018-01-10T06:09:32.829Z,26.63
2018-01-10T06:14:16.150Z,26.33
2018-01-10T06:19:00.284Z,28.33
2018-01-10T06:23:43.725Z,28.90
2018-01-10T06:28:27.026Z,27.77
2018-01-10T06:33:10.358Z,28.40
2018-01-10T06:37:53.735Z,29.67
2018-01-10T06:42:37.022Z,27.13
2018-01-10T06:47:20.444Z,28.13
2018-01-10T06:52:03.734Z,25.10
2018-01-10T06:56:47.066Z,26.40
2018-01-10T07:01:30.397Z,25.73
2018-01-10T07:06:13.745Z,25.20
2018-01-10T07:10:57.075Z,24.77
2018-01-10T07:15:40.458Z,26.07
2018-01-10T07:20:23.774Z,24.03
2018-01-10T07:25:07.107Z,24.83
2018-01-10T07:29:50.449Z,24.67
2018-01-10T07:34:33.764Z,26.83
2018-01-10T07:39:17.861Z,25.63
2018-01-10T07:44:01.200Z,24.47
2018-01-10T07:48:44.779Z,24.60
2018-01-10T07:53:28.099Z,23.10
2018-01-10T07:58:11.515Z,24.50
2018-01-10T08:02:54.901Z,23.20
2018-01-10T08:07:38.219Z,23.80
2018-01-10T08:12:21.684Z,23.57
2018-01-10T08:17:05.052Z,22.87
2018-01-10T08:21:49.156Z,23.70
2018-01-10T08:26:32.502Z,22.13
2018-01-10T08:31:15.874Z,22.33
2018-01-10T08:35:59.191Z,21.97
2018-01-10T08:40:42.525Z,22.77
2018-01-10T08:45:25.856Z,22.43
2018-01-10T08:50:09.151Z,22.30
2018-01-10T08:54:52.470Z,21.53
2018-01-10T08:59:36.595Z,20.60
2018-01-10T09:04:19.955Z,21.73
2018-01-10T09:09:03.283Z,21.17
2018-01-10T09:13:46.626Z,21.33
2018-01-10T09:18:29.948Z,20.80
2018-01-10T09:23:13.312Z,20.90
2018-01-10T09:27:56.725Z,20.50
2018-01-10T09:32:40.794Z,22.13
2018-01-10T09:37:24.170Z,19.33
2018-01-10T09:42:08.266Z,20.53
2018-01-10T09:46:51.566Z,18.37
2018-01-10T09:51:34.884Z,18.50
2018-01-10T09:56:18.217Z,22.43
2018-01-10T10:01:01.522Z,17.27
2018-01-10T10:05:44.824Z,16.70
2018-01-10T10:10:28.150Z,16.57
2018-01-10T10:15:11.454Z,17.30
2018-01-10T10:19:54.790Z,16.60
2018-01-10T10:24:38.130Z,14.93
2018-01-10T10:29:21.476Z,16.87
2018-01-10T10:34:04.971Z,15.93
2018-01-10T10:38:49.047Z,14.53
2018-01-10T10:43:33.143Z,19.17
2018-01-10T10:48:16.481Z,20.23
2018-01-10T10:52:59.803Z,14.63
2018-01-10T10:57:43.190Z,12.47
2018-01-10T11:02:26.551Z,11.50
2018-01-10T11:07:09.914Z,22.77
2018-01-10T11:11:53.226Z,22.60
2018-01-10T11:16:36.531Z,21.70
2018-01-10T11:21:19.906Z,21.97
2018-01-10T11:26:03.215Z,20.60
2018-01-10T11:30:46.522Z,20.47
2018-01-10T11:35:30.098Z,20.30
2018-01-10T11:40:13.441Z,23.63
2018-01-10T11:44:56.747Z,23.00
2018-01-10T11:49:40.074Z,22.83
2018-01-10T11:54:24.190Z,23.10
2018-01-10T11:59:07.499Z,21.43
2018-01-10T12:03:50.865Z,21.47
2018-01-10T12:08:34.169Z,35.40
2018-01-10T12:13:17.502Z,28.77
2018-01-10T12:18:00.858Z,24.37
2018-01-10T12:22:44.172Z,22.10
2018-01-10T12:27:27.492Z,21.30
2018-01-10T12:32:10.826Z,22.53
2018-01-10T12:36:54.111Z,21.77
2018-01-10T12:41:37.425Z,23.83
2018-01-10T12:46:20.774Z,21.53
2018-01-10T12:51:04.869Z,21.90
2018-01-10T12:55:48.178Z,22.63
2018-01-10T13:00:31.532Z,21.30
2018-01-10T13:05:14.850Z,19.30
2018-01-10T13:09:58.942Z,21.47
2018-01-10T13:14:42.258Z,19.60
2018-01-10T13:19:25.587Z,21.13
2018-01-10T13:24:08.920Z,20.30
2018-01-10T13:28:53.007Z,19.43
2018-01-10T13:33:38.354Z,19.03
2018-01-10T13:38:21.750Z,20.23
2018-01-10T13:43:05.315Z,20.83
2018-01-10T13:47:48.639Z,20.10
2018-01-10T13:52:31.957Z,22.03
2018-01-10T13:57:15.252Z,21.97
2018-01-10T14:01:58.575Z,20.53
2018-01-10T14:06:41.930Z,21.00
2018-01-10T14:11:25.271Z,17.80
2018-01-10T14:16:09.460Z,20.00
2018-01-10T14:20:53.120Z,21.00
2018-01-10T14:25:36.472Z,21.83
2018-01-10T14:30:19.769Z,24.30
2018-01-10T14:35:03.855Z,30.90
2018-01-10T14:39:47.199Z,31.17
2018-01-10T14:44:30.518Z,23.80
2018-01-10T14:49:13.851Z,20.70
2018-01-10T14:53:57.923Z,23.37
2018-01-10T14:58:41.245Z,22.40
2018-01-10T15:03:24.604Z,26.83
2018-01-10T15:08:07.976Z,27.63
2018-01-10T15:12:51.355Z,31.10
2018-01-10T15:17:35.452Z,24.03
2018-01-10T15:22:18.827Z,24.67
2018-01-10T15:27:03.019Z,24.10
2018-01-10T15:31:47.107Z,22.33
2018-01-10T15:36:30.450Z,19.03
2018-01-10T15:41:13.758Z,25.83
2018-01-10T15:45:57.850Z,25.93
2018-01-10T15:50:41.204Z,19.93
2018-01-10T15:55:24.539Z,24.60
2018-01-10T16:00:07.858Z,27.63
2018-01-10T16:04:52.038Z,23.90
2018-01-10T16:09:35.352Z,24.00
2018-01-10T16:14:19.443Z,27.40
2018-01-10T16:19:02.762Z,27.20
2018-01-10T16:23:46.117Z,26.40
2018-01-10T16:28:29.494Z,28.13
2018-01-10T16:33:12.844Z,29.47
2018-01-10T16:37:56.211Z,31.27
2018-01-10T16:42:39.578Z,39.23
2018-01-10T16:47:22.917Z,38.70
2018-01-10T16:52:06.215Z,30.10
2018-01-10T16:56:50.988Z,31.47
2018-01-10T17:01:34.318Z,34.23
2018-01-10T17:06:17.666Z,30.33
2018-01-10T17:11:00.971Z,27.33
2018-01-10T17:15:44.346Z,32.20
2018-01-10T17:20:27.624Z,32.77
2018-01-10T17:25:10.938Z,27.50
2018-01-10T17:29:55.052Z,24.23
2018-01-10T17:34:38.354Z,24.73
2018-01-10T17:39:21.678Z,25.03
2018-01-10T17:44:05.762Z,28.60
2018-01-10T17:48:49.115Z,21.53
2018-01-10T17:53:32.391Z,23.27
2018-01-10T17:58:15.716Z,23.73
2018-01-10T18:02:59.070Z,23.20
2018-01-10T18:07:42.406Z,21.43
2018-01-10T18:12:25.747Z,22.27
2018-01-10T18:17:09.337Z,20.93
2018-01-10T18:21:53.463Z,20.47
2018-01-10T18:26:36.783Z,19.73
2018-01-10T18:31:20.121Z,18.33
2018-01-10T18:36:03.427Z,17.80
2018-01-10T18:40:46.796Z,16.33
2018-01-10T18:45:30.164Z,18.40
2018-01-10T18:50:13.554Z,20.10
2018-01-10T18:54:57.062Z,19.17
2018-01-10T18:59:41.209Z,20.23
2018-01-10T19:04:24.619Z,19.73
2018-01-10T19:09:07.938Z,18.30
2018-01-10T19:13:51.229Z,19.47
2018-01-10T19:18:34.660Z,18.53
2018-01-10T19:23:18.017Z,18.40
2018-01-10T19:28:02.121Z,16.00
2018-01-10T19:32:45.453Z,18.77
2018-01-10T19:37:28.757Z,18.27
2018-01-10T19:42:12.904Z,19.77
2018-01-10T19:46:56.325Z,16.17
2018-01-10T19:51:39.644Z,14.57
2018-01-10T19:56:22.971Z,15.83
2018-01-10T20:01:06.327Z,15.30
2018-01-10T20:05:49.651Z,14.23
2018-01-10T20:10:33.035Z,15.17
2018-01-10T20:15:16.366Z,16.00
2018-01-10T20:19:59.695Z,13.73
2018-01-10T20:24:43.008Z,14.37
2018-01-10T20:29:26.383Z,13.83
2018-01-10T20:34:09.689Z,15.60
2018-01-10T20:38:52.999Z,15.47
2018-01-10T20:43:36.352Z,15.27
2018-01-10T20:48:20.477Z,13.87
2018-01-10T20:53:03.782Z,13.90
2018-01-10T20:57:47.136Z,13.47
2018-01-10T21:02:30.418Z,14.20
2018-01-10T21:07:14.527Z,15.90
2018-01-10T21:11:57.847Z,14.23
2018-01-10T21:16:41.201Z,15.23
2018-01-10T21:21:24.531Z,14.20
2018-01-10T21:26:08.235Z,13.77
2018-01-10T21:30:51.562Z,15.47
2018-01-10T21:35:34.866Z,16.85
2018-01-10T21:40:18.196Z,21.90
2018-01-10T21:45:01.524Z,15.43
2018-01-10T21:49:44.813Z,15.07
2018-01-10T21:54:28.211Z,14.13
2018-01-10T21:59:11.547Z,16.37
2018-01-10T22:03:54.890Z,14.67
2018-01-10T22:08:38.250Z,16.23
2018-01-10T22:13:21.538Z,20.47
2018-01-10T22:18:04.878Z,19.27
2018-01-10T22:22:48.202Z,16.37
2018-01-10T22:27:31.533Z,14.47
2018-01-10T22:32:14.904Z,15.73
2018-01-10T22:36:58.247Z,15.57
2018-01-10T22:41:41.554Z,14.20
2018-01-10T22:46:24.882Z,13.17
2018-01-10T22:51:09.824Z,12.57
2018-01-10T22:55:53.223Z,11.53
2018-01-10T23:00:36.671Z,11.40
2018-01-10T23:05:20.089Z,13.67
2018-01-10T23:10:03.373Z,13.33
2018-01-10T23:14:46.768Z,11.70
2018-01-10T23:19:30.090Z,12.50
2018-01-10T23:24:13.478Z,13.90
2018-01-10T23:28:56.806Z,13.33
2018-01-10T23:33:40.122Z,13.60
2018-01-10T23:38:23.502Z,13.70
2018-01-10T23:43:06.951Z,13.50
2018-01-10T23:47:50.266Z,13.07
2018-01-10T23:52:33.588Z,13.17
2018-01-10T23:57:16.922Z,11.43
